createdAt,value
2022-10-19T00:01:33.397Z,103226.66
2022-10-19T00:04:02.492Z,103251.09
2022-10-19T00:06:34.011Z,103257.25
2022-10-19T00:09:05.165Z,103253.72
2022-10-19T00:11:33.134Z,103240.59
2022-10-19T00:14:00.718Z,103245.00
2022-10-19T00:16:30.412Z,103250.25
2022-10-19T00:18:58.026Z,103237.16
2022-10-19T00:21:24.933Z,103235.25
2022-10-19T00:23:51.350Z,103236.19
2022-10-19T00:26:18.165Z,103234.34
2022-10-19T00:28:44.867Z,103230.91
2022-10-19T00:31:17.406Z,103231.72
2022-10-19T00:33:46.753Z,103231.66
2022-10-19T00:36:19.280Z,103237.84
2022-10-19T00:38:45.672Z,103230.75
2022-10-19T00:41:12.130Z,103222.03
2022-10-19T00:44:13.598Z,103228.13
2022-10-19T00:46:43.313Z,103229.88
2022-10-19T00:49:15.640Z,103229.88
2022-10-19T00:51:45.005Z,103230.72
2022-10-19T00:54:12.425Z,103206.34
2022-10-19T00:56:42.644Z,103215.03
2022-10-19T00:59:10.424Z,103233.19
2022-10-19T01:01:37.342Z,103228.78
2022-10-19T01:04:04.617Z,103243.63
2022-10-19T01:06:32.053Z,103236.53
2022-10-19T01:08:58.534Z,103223.31
2022-10-19T01:11:39.687Z,103214.53
2022-10-19T01:14:24.587Z,103224.09
2022-10-19T01:17:11.048Z,103231.06
2022-10-19T01:20:08.268Z,103207.41
2022-10-19T01:22:56.349Z,103217.81
2022-10-19T01:25:35.097Z,103223.88
2022-10-19T01:28:20.475Z,103215.06
2022-10-19T01:30:58.597Z,103214.16
2022-10-19T01:33:43.282Z,103213.19
2022-10-19T01:36:28.786Z,103218.38
2022-10-19T01:39:04.107Z,103207.81
2022-10-19T01:41:41.397Z,103221.56
2022-10-19T01:44:17.308Z,103224.72
2022-10-19T01:46:56.752Z,103207.97
2022-10-19T01:49:35.167Z,103183.59
2022-10-19T01:52:08.442Z,103209.53
2022-10-19T01:54:42.582Z,103199.03
2022-10-19T01:57:12.413Z,103206.94
2022-10-19T01:59:39.569Z,103207.16
2022-10-19T02:02:08.845Z,103209.81
2022-10-19T02:04:36.821Z,103197.75
2022-10-19T02:07:06.506Z,103199.59
2022-10-19T02:09:33.169Z,103213.63
2022-10-19T02:12:04.889Z,103203.31
2022-10-19T02:14:37.554Z,103211.13
2022-10-19T02:17:13.971Z,103201.72
2022-10-19T02:19:41.316Z,103209.63
2022-10-19T02:22:08.691Z,103200.88
2022-10-19T02:24:35.132Z,103193.19
2022-10-19T02:27:04.871Z,103199.38
2022-10-19T02:29:33.127Z,103196.06
2022-10-19T02:32:00.131Z,103202.22
2022-10-19T02:34:27.054Z,103197.91
2022-10-19T02:36:54.240Z,103191.88
2022-10-19T02:39:21.378Z,103197.22
2022-10-19T02:42:04.160Z,103194.69
2022-10-19T02:44:56.864Z,103190.31
2022-10-19T02:47:28.270Z,103195.63
2022-10-19T02:49:54.908Z,103170.56
2022-10-19T02:52:21.435Z,103189.69
2022-10-19T02:54:47.926Z,103148.78
2022-10-19T02:57:15.601Z,103182.84
2022-10-19T02:59:42.006Z,103182.03
2022-10-19T03:02:08.550Z,103181.16
2022-10-19T03:04:35.031Z,103180.31
2022-10-19T03:07:01.695Z,103166.38
2022-10-19T03:09:28.145Z,103168.19
2022-10-19T03:11:57.323Z,103184.81
2022-10-19T03:14:23.803Z,103181.31
2022-10-19T03:16:50.238Z,103187.47
2022-10-19T03:19:16.674Z,103170.94
2022-10-19T03:21:43.095Z,103171.00
2022-10-19T03:24:10.056Z,103182.34
2022-10-19T03:26:36.592Z,103167.56
2022-10-19T03:29:03.349Z,103178.13
2022-10-19T03:31:29.879Z,103172.88
2022-10-19T03:33:56.452Z,103166.84
2022-10-19T03:36:24.691Z,103167.81
2022-10-19T03:38:56.080Z,103177.38
2022-10-19T03:41:24.349Z,103173.88
2022-10-19T03:43:51.166Z,103162.59
2022-10-19T03:46:17.674Z,103166.09
2022-10-19T03:48:44.491Z,103153.88
2022-10-19T03:51:16.759Z,103159.19
2022-10-19T03:53:43.701Z,103154.91
2022-10-19T03:56:15.464Z,103175.03
2022-10-19T03:58:43.537Z,103139.25
2022-10-19T04:01:16.498Z,103169.78
2022-10-19T04:03:43.635Z,103164.56
2022-10-19T04:06:15.840Z,103162.84
2022-10-19T04:08:48.074Z,103167.19
2022-10-19T04:11:16.422Z,103161.97
2022-10-19T04:13:42.762Z,103171.63
2022-10-19T04:16:13.301Z,103164.63
2022-10-19T04:18:39.757Z,103162.06
2022-10-19T04:21:06.817Z,103161.16
2022-10-19T04:23:35.839Z,103162.00
2022-10-19T04:26:04.290Z,103162.88
2022-10-19T04:28:30.619Z,103163.78
2022-10-19T04:30:57.176Z,103143.69
2022-10-19T04:33:23.784Z,103162.94
2022-10-19T04:35:50.226Z,103167.38
2022-10-19T04:38:16.714Z,103155.19
2022-10-19T04:40:43.218Z,103154.38
2022-10-19T04:43:09.624Z,103162.25
2022-10-19T04:45:36.136Z,103176.28
2022-10-19T04:48:02.497Z,103166.69
2022-10-19T04:50:28.988Z,103173.72
2022-10-19T04:52:55.464Z,103173.69
2022-10-19T04:55:21.967Z,103164.03
2022-10-19T04:57:48.599Z,103158.84
2022-10-19T05:00:15.588Z,103166.72
2022-10-19T05:02:46.114Z,103164.91
2022-10-19T05:05:14.208Z,103149.22
2022-10-19T05:07:40.832Z,103168.34
2022-10-19T05:10:10.967Z,103161.34
2022-10-19T05:12:37.482Z,103147.41
2022-10-19T05:15:04.321Z,103160.44
2022-10-19T05:17:32.282Z,103163.97
2022-10-19T05:19:58.943Z,103134.31
2022-10-19T05:22:25.495Z,103156.94
2022-10-19T05:24:55.851Z,103154.25
2022-10-19T05:27:24.787Z,103147.19
2022-10-19T05:29:51.283Z,103149.81
2022-10-19T05:32:17.753Z,103145.41
2022-10-19T05:34:44.285Z,103158.63
2022-10-19T05:37:10.752Z,103119.38
2022-10-19T05:39:37.229Z,103154.25
2022-10-19T05:42:03.620Z,103156.00
2022-10-19T05:44:30.252Z,103147.25
2022-10-19T05:46:56.753Z,103143.72
2022-10-19T05:49:23.303Z,103125.47
2022-10-19T05:51:50.244Z,103149.94
2022-10-19T05:54:16.712Z,103138.69
2022-10-19T05:56:43.920Z,103159.63
2022-10-19T05:59:15.382Z,103157.03
2022-10-19T06:01:41.850Z,103159.63
2022-10-19T06:04:08.434Z,103149.19
2022-10-19T06:06:34.893Z,103152.69
2022-10-19T06:09:01.527Z,103165.78
2022-10-19T06:11:35.117Z,103161.47
2022-10-19T06:14:04.041Z,103155.34
2022-10-19T06:16:31.711Z,103158.88
2022-10-19T06:18:59.099Z,103154.56
2022-10-19T06:21:28.536Z,103166.81
2022-10-19T06:24:01.512Z,103144.09
2022-10-19T06:26:30.325Z,103158.94
2022-10-19T06:29:00.275Z,103163.34
2022-10-19T06:31:31.739Z,103155.47
2022-10-19T06:33:58.620Z,103150.28
2022-10-19T06:36:27.844Z,103171.25
2022-10-19T06:38:55.881Z,103156.41
2022-10-19T06:41:23.002Z,103144.16
2022-10-19T06:43:51.100Z,103170.25
2022-10-19T06:46:20.485Z,103162.28
2022-10-19T06:48:58.106Z,103156.97
2022-10-19T06:51:26.178Z,103171.66
2022-10-19T06:53:56.618Z,103162.84
2022-10-19T06:56:24.651Z,103156.59
2022-10-19T06:58:51.712Z,103163.38
2022-10-19T07:01:18.467Z,103159.63
2022-10-19T07:03:45.108Z,103154.03
2022-10-19T07:06:12.940Z,103146.91
2022-10-19T07:08:41.564Z,103141.22
2022-10-19T07:11:10.891Z,103139.16
2022-10-19T07:13:38.071Z,103124.28
2022-10-19T07:16:08.007Z,103111.16
2022-10-19T07:18:36.293Z,103145.94
2022-10-19T07:21:05.926Z,103140.59
2022-10-19T07:23:34.440Z,103142.28
2022-10-19T07:26:23.172Z,103144.56
2022-10-19T07:28:49.779Z,103132.19
2022-10-19T07:31:18.396Z,103143.53
2022-10-19T07:33:45.019Z,103132.00
2022-10-19T07:36:13.604Z,103141.63
2022-10-19T07:38:40.704Z,103155.56
2022-10-19T07:41:13.081Z,103153.53
2022-10-19T07:43:40.611Z,103150.81
2022-10-19T07:46:09.642Z,103134.91
2022-10-19T07:48:36.117Z,103148.66
2022-10-19T07:51:05.720Z,103153.66
2022-10-19T07:53:32.752Z,103149.88
2022-10-19T07:56:11.086Z,103157.91
2022-10-19T07:58:37.908Z,103148.88
2022-10-19T08:01:12.582Z,103150.28
2022-10-19T08:06:26.477Z,103139.72
2022-10-19T08:08:54.100Z,103137.72
2022-10-19T08:11:25.244Z,103138.50
2022-10-19T08:13:52.325Z,103141.16
2022-10-19T08:16:37.279Z,103121.09
2022-10-19T08:19:07.121Z,103153.09
2022-10-19T08:21:34.726Z,103151.28
2022-10-19T08:24:01.195Z,103153.88
2022-10-19T08:26:32.312Z,103152.75
2022-10-19T08:29:00.551Z,103156.06
2022-10-19T08:31:26.886Z,103152.56
2022-10-19T08:33:53.440Z,103142.94
2022-10-19T08:36:21.180Z,103139.00
2022-10-19T08:38:48.860Z,103139.84
2022-10-19T08:41:23.125Z,103125.88
2022-10-19T08:44:04.022Z,103136.38
2022-10-19T08:47:08.730Z,103148.41
2022-10-19T08:49:36.359Z,103144.72
2022-10-19T08:52:17.694Z,103114.97
2022-10-19T08:54:51.049Z,103128.41
2022-10-19T08:57:24.297Z,103115.94
2022-10-19T09:00:27.776Z,103134.97
2022-10-19T09:03:31.874Z,103116.13
2022-10-19T09:06:29.798Z,103124.09
2022-10-19T09:08:57.697Z,103114.47
2022-10-19T09:11:35.458Z,103083.88
2022-10-19T09:14:17.698Z,103116.75
2022-10-19T09:16:44.253Z,103107.66
2022-10-19T09:19:21.971Z,103112.72
2022-10-19T09:22:15.908Z,103101.34
2022-10-19T09:24:49.158Z,103104.78
2022-10-19T09:27:39.566Z,103105.59
2022-10-19T09:30:16.941Z,103092.09
2022-10-19T09:32:43.494Z,103097.81
2022-10-19T09:35:34.099Z,103051.78
2022-10-19T09:38:00.754Z,103078.28
2022-10-19T09:40:29.808Z,103074.72
2022-10-19T09:42:58.180Z,103078.13
2022-10-19T09:45:57.297Z,103076.16
2022-10-19T09:48:30.858Z,103053.44
2022-10-19T09:51:02.476Z,103070.38
2022-10-19T09:53:30.093Z,103064.41
2022-10-19T09:56:04.883Z,103064.47
2022-10-19T09:58:33.101Z,103066.34
2022-10-19T10:01:01.740Z,103062.72
2022-10-19T10:03:35.960Z,103064.53
2022-10-19T10:06:06.018Z,103067.00
2022-10-19T10:08:45.162Z,103066.19
2022-10-19T10:11:24.094Z,103081.03
2022-10-19T10:13:55.891Z,103069.56
2022-10-19T10:16:29.220Z,103064.16
2022-10-19T10:19:02.637Z,103065.88
2022-10-19T10:21:36.335Z,103068.38
2022-10-19T10:24:16.754Z,103071.13
2022-10-19T10:26:49.119Z,103073.75
2022-10-19T10:29:39.065Z,103068.16
2022-10-19T10:32:11.358Z,103067.19
2022-10-19T10:34:50.634Z,103064.50
2022-10-19T10:37:23.208Z,103056.41
2022-10-19T10:39:57.708Z,103065.09
2022-10-19T10:42:32.820Z,103068.44
2022-10-19T10:44:59.848Z,103071.81
2022-10-19T10:47:28.166Z,103067.41
2022-10-19T10:49:58.903Z,103069.06
2022-10-19T10:52:28.220Z,103058.38
2022-10-19T10:55:09.848Z,103051.97
2022-10-19T10:57:46.411Z,103035.28
2022-10-19T11:00:16.606Z,103030.91
2022-10-19T11:03:01.168Z,103032.47
2022-10-19T11:05:40.640Z,103026.28
2022-10-19T11:08:31.880Z,103021.50
2022-10-19T11:11:30.395Z,103011.53
2022-10-19T11:13:59.863Z,102999.03
2022-10-19T11:16:39.815Z,102991.66
2022-10-19T11:19:11.566Z,102994.31
2022-10-19T11:21:44.305Z,102994.94
2022-10-19T11:24:32.039Z,102985.13
2022-10-19T11:27:19.933Z,102981.47
2022-10-19T11:29:57.467Z,102977.72
2022-10-19T11:32:56.177Z,102970.31
2022-10-19T11:35:39.440Z,102967.47
2022-10-19T11:38:30.403Z,102937.66
2022-10-19T11:41:18.330Z,102938.22
2022-10-19T11:44:09.668Z,102931.00
2022-10-19T11:46:55.379Z,102926.47
2022-10-19T11:49:49.375Z,102931.19
2022-10-19T11:52:38.983Z,102912.53
2022-10-19T11:55:30.640Z,102908.41
2022-10-19T11:58:35.495Z,102911.00
2022-10-19T12:01:20.664Z,102899.56
2022-10-19T12:04:23.126Z,102896.00
2022-10-19T12:06:59.852Z,102869.34
2022-10-19T12:09:39.268Z,102873.84
2022-10-19T12:12:18.734Z,102880.78
2022-10-19T12:14:50.835Z,102872.56
2022-10-19T12:17:34.184Z,102861.41
2022-10-19T12:20:07.115Z,102851.59
2022-10-19T12:22:34.436Z,102844.47
2022-10-19T12:25:01.867Z,102858.28
2022-10-19T12:27:34.273Z,102848.69
2022-10-19T12:30:14.922Z,102841.44
2022-10-19T12:33:08.805Z,102801.44
2022-10-19T12:35:45.652Z,102821.72
2022-10-19T12:39:00.029Z,102818.25
2022-10-19T12:41:39.019Z,102811.34
2022-10-19T12:44:21.243Z,102811.13
2022-10-19T12:46:56.452Z,102811.34
2022-10-19T12:49:31.064Z,102817.31
2022-10-19T12:51:59.604Z,102783.44
2022-10-19T12:54:28.937Z,102801.56
2022-10-19T12:56:57.412Z,102800.22
2022-10-19T12:59:25.534Z,102800.50
2022-10-19T13:01:52.371Z,102790.59
2022-10-19T13:04:23.266Z,102791.78
2022-10-19T13:06:58.510Z,102784.78
2022-10-19T13:09:35.347Z,102764.66
2022-10-19T13:12:17.660Z,102762.66
2022-10-19T13:14:50.516Z,102764.38
2022-10-19T13:17:40.608Z,102764.03
2022-10-19T13:20:16.129Z,102746.41
2022-10-19T13:23:11.878Z,102753.31
2022-10-19T13:25:39.234Z,102744.47
2022-10-19T13:28:26.763Z,102748.78
2022-10-19T13:30:54.604Z,102724.19
2022-10-19T13:33:25.560Z,102746.84
2022-10-19T13:36:04.171Z,102743.97
2022-10-19T13:38:31.584Z,102736.94
2022-10-19T13:41:15.458Z,102726.94
2022-10-19T13:44:03.870Z,102735.00
2022-10-19T13:46:30.237Z,102725.22
2022-10-19T13:49:27.743Z,102731.41
2022-10-19T13:52:09.023Z,102733.56
2022-10-19T13:54:57.287Z,102722.91
2022-10-19T13:57:54.232Z,102726.88
2022-10-19T14:00:23.753Z,102727.00
2022-10-19T14:03:00.791Z,102719.91
2022-10-19T14:05:53.616Z,102714.56
2022-10-19T14:08:30.259Z,102716.16
2022-10-19T14:11:06.139Z,102728.47
2022-10-19T14:13:32.747Z,102722.41
2022-10-19T14:16:03.139Z,102732.34
2022-10-19T14:18:36.003Z,102723.34
2022-10-19T14:21:06.013Z,102723.41
2022-10-19T14:23:35.465Z,102722.28
2022-10-19T14:26:07.327Z,102737.22
2022-10-19T14:28:34.508Z,102732.13
2022-10-19T14:31:04.565Z,102734.56
2022-10-19T14:33:39.436Z,102731.25
2022-10-19T14:36:08.067Z,102726.88
2022-10-19T14:38:38.605Z,102732.50
2022-10-19T14:41:06.760Z,102729.72
2022-10-19T14:43:34.324Z,102728.50
2022-10-19T14:46:06.514Z,102718.00
2022-10-19T14:48:38.952Z,102713.00
2022-10-19T14:51:14.878Z,102710.31
2022-10-19T14:53:49.767Z,102697.53
2022-10-19T14:56:46.927Z,102698.16
2022-10-19T14:59:27.200Z,102701.94
2022-10-19T15:01:55.564Z,102694.16
2022-10-19T15:04:32.647Z,102696.09
2022-10-19T15:07:03.035Z,102679.63
2022-10-19T15:09:37.471Z,102684.06
2022-10-19T15:12:16.991Z,102683.28
2022-10-19T15:14:44.548Z,102674.50
2022-10-19T15:17:29.479Z,102672.78
2022-10-19T15:20:01.328Z,102672.84
2022-10-19T15:22:30.966Z,102660.13
2022-10-19T15:25:06.524Z,102639.13
2022-10-19T15:27:38.916Z,102654.72
2022-10-19T15:30:31.514Z,102646.97
2022-10-19T15:33:09.493Z,102643.66
2022-10-19T15:35:39.041Z,102638.69
2022-10-19T15:38:21.893Z,102644.00
2022-10-19T15:40:49.252Z,102636.31
2022-10-19T15:43:31.842Z,102635.47
2022-10-19T15:46:01.422Z,102625.91
2022-10-19T15:48:41.499Z,102611.94
2022-10-19T15:51:33.064Z,102606.41
2022-10-19T15:54:05.396Z,102604.97
2022-10-19T15:56:34.901Z,102600.78
2022-10-19T15:59:03.748Z,102606.38
2022-10-19T16:01:32.345Z,102611.84
2022-10-19T16:03:59.713Z,102611.38
2022-10-19T16:06:28.859Z,102606.47
2022-10-19T16:08:55.688Z,102601.91
2022-10-19T16:11:23.286Z,102593.34
2022-10-19T16:13:50.146Z,102584.34
2022-10-19T16:16:28.997Z,102583.28
2022-10-19T16:18:56.485Z,102573.28
2022-10-19T16:21:27.763Z,102581.53
2022-10-19T16:23:54.196Z,102583.25
2022-10-19T16:26:21.281Z,102568.59
2022-10-19T16:28:48.716Z,102577.03
2022-10-19T16:31:16.158Z,102566.06
2022-10-19T16:33:42.542Z,102569.84
2022-10-19T16:36:09.127Z,102569.84
2022-10-19T16:38:36.496Z,102564.16
2022-10-19T16:41:05.652Z,102576.09
2022-10-19T16:43:32.180Z,102571.97
2022-10-19T16:45:58.663Z,102574.69
2022-10-19T16:48:25.535Z,102570.31
2022-10-19T16:51:07.321Z,102574.91
2022-10-19T16:53:35.164Z,102576.81
2022-10-19T16:56:10.997Z,102572.97
2022-10-19T16:58:38.198Z,102568.59
2022-10-19T17:01:23.028Z,102560.75
2022-10-19T17:03:50.001Z,102549.59
2022-10-19T17:06:17.254Z,102527.03
2022-10-19T17:09:14.771Z,102522.41
2022-10-19T17:11:34.086Z,102525.06
2022-10-19T17:14:04.107Z,102530.69
2022-10-19T17:16:32.883Z,102527.28
2022-10-19T17:19:00.843Z,102523.84
2022-10-19T17:21:30.324Z,102530.75
2022-10-19T17:24:02.256Z,102538.41
2022-10-19T17:26:35.143Z,102533.69
2022-10-19T17:29:02.050Z,102533.88
2022-10-19T17:31:29.366Z,102540.00
2022-10-19T17:33:56.453Z,102531.50
2022-10-19T17:36:26.290Z,102549.06
2022-10-19T17:38:57.657Z,102545.81
2022-10-19T17:41:24.907Z,102531.88
2022-10-19T17:43:52.104Z,102531.56
2022-10-19T17:46:22.989Z,102523.72
2022-10-19T17:48:49.857Z,102526.44
2022-10-19T17:51:35.718Z,102529.09
2022-10-19T17:54:05.140Z,102524.84
2022-10-19T17:56:31.737Z,102528.28
2022-10-19T17:58:58.503Z,102514.41
2022-10-19T18:01:26.023Z,102520.38
2022-10-19T18:03:52.980Z,102529.09
2022-10-19T18:06:24.672Z,102525.69
2022-10-19T18:08:54.012Z,102522.44
2022-10-19T18:11:29.402Z,102532.06
2022-10-19T18:13:58.309Z,102535.56
2022-10-19T18:16:27.419Z,102508.00
2022-10-19T18:18:56.760Z,102523.22
2022-10-19T18:21:26.880Z,102537.28
2022-10-19T18:23:56.072Z,102541.00
2022-10-19T18:26:29.769Z,102533.34
2022-10-19T18:28:57.218Z,102533.22
2022-10-19T18:31:29.140Z,102537.72
2022-10-19T18:33:58.649Z,102537.84
2022-10-19T18:36:25.160Z,102514.78
2022-10-19T18:38:53.112Z,102541.50
2022-10-19T18:41:20.259Z,102537.19
2022-10-19T18:43:52.316Z,102537.34
2022-10-19T18:46:21.180Z,102534.09
2022-10-19T18:48:48.107Z,102498.53
2022-10-19T18:51:17.442Z,102507.63
2022-10-19T18:53:44.865Z,102490.06
2022-10-19T18:56:12.922Z,102485.69
2022-10-19T18:58:39.567Z,102480.19
2022-10-19T19:01:24.455Z,102483.66
2022-10-19T19:03:53.764Z,102478.84
2022-10-19T19:06:22.239Z,102472.69
2022-10-19T19:08:49.291Z,102472.44
2022-10-19T19:11:37.459Z,102471.81
2022-10-19T19:14:16.296Z,102483.38
2022-10-19T19:16:44.643Z,102444.44
2022-10-19T19:19:13.666Z,102460.88
2022-10-19T19:21:43.673Z,102457.41
2022-10-19T19:24:12.637Z,102452.25
2022-10-19T19:26:41.568Z,102422.94
2022-10-19T19:29:08.227Z,102441.97
2022-10-19T19:31:34.883Z,102434.22
2022-10-19T19:34:02.443Z,102438.75
2022-10-19T19:36:28.953Z,102446.03
2022-10-19T19:38:57.195Z,102446.38
2022-10-19T19:41:23.595Z,102438.50
2022-10-19T19:43:50.259Z,102431.28
2022-10-19T19:46:19.268Z,102412.88
2022-10-19T19:48:48.051Z,102404.13
2022-10-19T19:51:19.086Z,102392.56
2022-10-19T19:53:47.195Z,102393.34
2022-10-19T19:56:16.818Z,102376.78
2022-10-19T19:58:44.807Z,102375.84
2022-10-19T20:01:17.811Z,102374.00
2022-10-19T20:03:45.972Z,102364.34
2022-10-19T20:06:13.426Z,102358.44
2022-10-19T20:08:40.012Z,102337.88
2022-10-19T20:11:12.335Z,102356.63
2022-10-19T20:13:39.307Z,102353.13
2022-10-19T20:16:12.596Z,102359.34
2022-10-19T20:18:44.714Z,102347.09
2022-10-19T20:21:11.360Z,102346.31
2022-10-19T20:23:38.565Z,102352.53
2022-10-19T20:26:05.316Z,102343.78
2022-10-19T20:28:33.181Z,102333.44
2022-10-19T20:31:01.801Z,102324.28
2022-10-19T20:33:30.085Z,102295.13
2022-10-19T20:35:56.416Z,102329.69
2022-10-19T20:38:23.015Z,102317.06
2022-10-19T20:40:49.767Z,102323.94
2022-10-19T20:43:17.511Z,102321.38
2022-10-19T20:45:43.974Z,102321.50
2022-10-19T20:48:10.352Z,102315.81
2022-10-19T20:50:39.057Z,102310.44
2022-10-19T20:53:05.433Z,102307.44
2022-10-19T20:55:33.410Z,102302.34
2022-10-19T20:57:59.803Z,102306.81
2022-10-19T21:00:26.209Z,102297.22
2022-10-19T21:02:53.527Z,102294.88
2022-10-19T21:05:20.007Z,102276.41
2022-10-19T21:07:46.415Z,102280.91
2022-10-19T21:10:12.811Z,102285.84
2022-10-19T21:12:39.224Z,102287.78
2022-10-19T21:15:06.046Z,102279.97
2022-10-19T21:17:32.618Z,102263.13
2022-10-19T21:20:01.505Z,102269.34
2022-10-19T21:22:27.978Z,102273.66
2022-10-19T21:24:54.373Z,102258.13
2022-10-19T21:27:21.081Z,102270.38
2022-10-19T21:29:47.457Z,102274.88
2022-10-19T21:32:13.883Z,102285.56
2022-10-19T21:34:40.257Z,102278.72
2022-10-19T21:37:06.742Z,102285.13
2022-10-19T21:39:33.202Z,102289.38
2022-10-19T21:41:59.583Z,102281.72
2022-10-19T21:44:26.126Z,102270.53
2022-10-19T21:46:53.001Z,102275.56
2022-10-19T21:49:21.913Z,102279.16
2022-10-19T21:51:54.267Z,102282.59
2022-10-19T21:54:29.064Z,102273.94
2022-10-19T21:56:57.633Z,102267.94
2022-10-19T21:59:25.063Z,102260.31
2022-10-19T22:01:51.916Z,102250.75
2022-10-19T22:04:18.839Z,102261.22
2022-10-19T22:06:45.441Z,102253.63
2022-10-19T22:09:17.967Z,102256.50
2022-10-19T22:11:44.998Z,102260.19
2022-10-19T22:14:13.294Z,102265.28
2022-10-19T22:16:40.181Z,102265.34
2022-10-19T22:19:06.919Z,102251.50
2022-10-19T22:21:34.495Z,102253.38
2022-10-19T22:24:04.885Z,102238.63
2022-10-19T22:26:37.920Z,102235.00
2022-10-19T22:29:05.871Z,102224.53
2022-10-19T22:31:33.742Z,102213.09
2022-10-19T22:34:01.754Z,102225.97
2022-10-19T22:36:28.482Z,102217.06
2022-10-19T22:38:55.173Z,102213.63
2022-10-19T22:41:21.711Z,102195.34
2022-10-19T22:43:48.106Z,102196.50
2022-10-19T22:46:14.610Z,102188.56
2022-10-19T22:48:40.974Z,102194.03
2022-10-19T22:51:09.754Z,102201.66
2022-10-19T22:53:36.162Z,102185.25
2022-10-19T22:56:02.825Z,102198.22
2022-10-19T22:58:29.287Z,102203.28
2022-10-19T23:01:04.418Z,102176.56
2022-10-19T23:03:30.932Z,102181.56
2022-10-19T23:05:57.430Z,102180.69
2022-10-19T23:08:24.603Z,102177.13
2022-10-19T23:10:51.142Z,102173.81
2022-10-19T23:13:17.608Z,102166.69
2022-10-19T23:15:45.012Z,102165.59
2022-10-19T23:18:15.051Z,102166.63
2022-10-19T23:20:41.512Z,102152.84
2022-10-19T23:23:08.746Z,102171.22
2022-10-19T23:25:35.144Z,102158.81
2022-10-19T23:28:01.561Z,102150.03
2022-10-19T23:30:28.016Z,102138.66
2022-10-19T23:32:55.934Z,102132.88
2022-10-19T23:35:22.429Z,102129.38
2022-10-19T23:37:49.091Z,102134.34
2022-10-19T23:40:15.602Z,102118.50
2022-10-19T23:42:42.247Z,102123.97
2022-10-19T23:45:08.980Z,102121.81
2022-10-19T23:47:35.563Z,102116.72
2022-10-19T23:50:02.177Z,102104.56
2022-10-19T23:52:28.609Z,102112.34
2022-10-19T23:54:55.023Z,102121.13
2022-10-19T23:57:21.420Z,102125.38
2022-10-19T23:59:50.187Z,102128.13
